Time;durP1;ratioP1;P1;durP2;ratioP2;P2;SDS_P1;SDS_P2;PMS_P1;PMS_P2;Temp;Humidity;BMP_temperature;BMP_pressure;BME280_temperature;BME280_humidity;BME280_pressure;Samples;Min_cycle;Max_cycle;Signal;HPM_P1;HPM_P2
2021/06/23 00:01:40;;;;;;;8.35;6.40;;;;;;;18.80;100.00;96277.84;5019810;28;20210;-74
2021/06/23 00:04:06;;;;;;;12.65;7.38;;;;;;;18.75;100.00;96276.88;5019197;28;20213;-75
2021/06/23 00:06:33;;;;;;;10.43;7.07;;;;;;;18.74;100.00;96292.09;5020118;28;20236;-75
2021/06/23 00:09:00;;;;;;;11.57;7.20;;;;;;;18.54;100.00;96291.53;5019145;28;20202;-74
2021/06/23 00:11:35;;;;;;;9.68;6.65;;;;;;;18.59;100.00;96296.19;5019123;28;20213;-75
2021/06/23 00:14:02;;;;;;;9.07;7.13;;;;;;;18.47;100.00;96288.13;5020262;28;20211;-75
2021/06/23 00:16:29;;;;;;;9.10;7.15;;;;;;;18.36;100.00;96290.75;5017994;28;20237;-75
2021/06/23 00:18:55;;;;;;;8.63;7.30;;;;;;;18.28;100.00;96296.38;5018974;28;20222;-74
2021/06/23 00:21:21;;;;;;;10.45;7.90;;;;;;;18.24;100.00;96297.03;5019034;28;20206;-74
2021/06/23 00:23:48;;;;;;;12.23;8.05;;;;;;;18.20;100.00;96298.50;5018091;28;20203;-75
2021/06/23 00:26:16;;;;;;;13.25;8.40;;;;;;;18.16;100.00;96294.63;5017395;28;20226;-75
2021/06/23 00:28:42;;;;;;;11.63;7.80;;;;;;;18.16;100.00;96302.63;5018450;28;20202;-76
2021/06/23 00:31:09;;;;;;;15.30;8.75;;;;;;;18.04;100.00;96309.75;5018788;28;20205;-75
2021/06/23 00:33:37;;;;;;;15.20;9.38;;;;;;;17.98;100.00;96307.97;5019350;28;20300;-76
2021/06/23 00:36:05;;;;;;;15.38;9.63;;;;;;;17.94;100.00;96304.91;5018305;28;20229;-76
2021/06/23 00:38:31;;;;;;;15.40;10.35;;;;;;;17.96;100.00;96310.84;5018891;28;20546;-76
2021/06/23 00:40:58;;;;;;;15.50;11.13;;;;;;;17.92;100.00;96300.84;5017080;28;20198;-75
2021/06/23 00:43:26;;;;;;;15.98;11.45;;;;;;;17.94;100.00;96302.25;5018987;28;20208;-75
2021/06/23 00:45:53;;;;;;;19.35;11.90;;;;;;;17.94;100.00;96309.44;5018361;28;20727;-74
2021/06/23 00:48:27;;;;;;;18.33;13.20;;;;;;;17.95;100.00;96305.75;5018745;28;20205;-75
2021/06/23 00:50:54;;;;;;;17.17;12.88;;;;;;;17.94;100.00;96309.44;5019031;28;20201;-74
2021/06/23 00:53:20;;;;;;;19.50;13.38;;;;;;;17.95;100.00;96306.53;5018376;28;20866;-74
2021/06/23 00:55:51;;;;;;;20.10;12.80;;;;;;;17.94;100.00;96304.91;5017734;28;20222;-74
2021/06/23 00:58:18;;;;;;;21.42;14.18;;;;;;;17.97;100.00;96301.81;5018566;28;20228;-75
2021/06/23 01:00:47;;;;;;;20.00;13.13;;;;;;;17.94;100.00;96306.78;5018143;28;20687;-75
2021/06/23 01:03:13;;;;;;;19.52;13.88;;;;;;;17.99;100.00;96309.59;5019428;28;20198;-74
2021/06/23 01:05:42;;;;;;;19.63;12.48;;;;;;;17.95;100.00;96313.75;5017846;28;20232;-74
2021/06/23 01:08:09;;;;;;;17.40;12.27;;;;;;;17.94;100.00;96315.56;5018299;28;20229;-75
2021/06/23 01:10:36;;;;;;;18.00;12.52;;;;;;;18.00;100.00;96311.22;5019027;28;20202;-75
2021/06/23 01:13:33;;;;;;;14.82;9.35;;;;;;;18.00;100.00;96306.72;5018069;28;20205;-75
2021/06/23 01:16:03;;;;;;;12.43;8.35;;;;;;;18.02;100.00;96298.47;5018132;28;20233;-74
2021/06/23 01:18:30;;;;;;;11.02;7.97;;;;;;;18.00;100.00;96292.56;5018867;28;20236;-74
2021/06/23 01:20:56;;;;;;;11.25;7.43;;;;;;;17.94;100.00;96285.44;5017762;28;20198;-74
2021/06/23 01:23:24;;;;;;;9.80;6.72;;;;;;;17.92;100.00;96282.16;5019026;28;20205;-75
2021/06/23 01:25:51;;;;;;;8.70;6.82;;;;;;;17.93;100.00;96278.47;5018235;28;20225;-74
2021/06/23 01:28:18;;;;;;;11.68;7.25;;;;;;;17.88;100.00;96280.97;5017411;28;20220;-75
2021/06/23 01:30:45;;;;;;;9.13;6.68;;;;;;;17.95;100.00;96271.09;5018026;28;20206;-75
2021/06/23 01:33:13;;;;;;;11.02;6.78;;;;;;;18.09;100.00;96261.91;5017689;28;20205;-74
2021/06/23 01:35:40;;;;;;;15.63;8.02;;;;;;;17.98;100.00;96258.09;5016462;28;20221;-75
2021/06/23 01:38:07;;;;;;;11.32;7.45;;;;;;;17.93;100.00;96246.47;5019343;28;20237;-74
2021/06/23 01:40:35;;;;;;;11.98;7.93;;;;;;;17.84;100.00;96253.13;5022717;28;20205;-74
2021/06/23 01:43:01;;;;;;;11.27;8.10;;;;;;;17.88;100.00;96255.16;5020119;28;20198;-74
2021/06/23 01:45:28;;;;;;;11.95;7.38;;;;;;;17.92;100.00;96237.69;5021095;28;20221;-75
2021/06/23 01:47:55;;;;;;;10.93;6.97;;;;;;;17.87;100.00;96236.69;5021663;28;20209;-75
2021/06/23 01:50:22;;;;;;;9.63;7.25;;;;;;;17.88;100.00;96228.50;5022148;28;20205;-74
2021/06/23 01:52:48;;;;;;;10.52;6.38;;;;;;;17.76;100.00;96226.78;5021804;28;20205;-74
2021/06/23 01:55:27;;;;;;;9.18;6.20;;;;;;;17.61;100.00;96225.50;5021578;28;20222;-74
2021/06/23 01:57:59;;;;;;;12.35;7.35;;;;;;;17.64;100.00;96209.88;5021571;28;20209;-74
2021/06/23 02:00:31;;;;;;;10.93;7.80;;;;;;;17.59;100.00;96203.56;5021551;28;20699;-74
2021/06/23 02:03:08;;;;;;;10.55;7.80;;;;;;;17.55;100.00;96205.84;5021666;28;20572;-75
2021/06/23 02:05:43;;;;;;;14.00;8.55;;;;;;;17.56;100.00;96198.69;5020825;28;20239;-74
2021/06/23 02:08:19;;;;;;;15.65;8.85;;;;;;;17.61;100.00;96204.19;5021923;28;20212;-74
2021/06/23 02:11:31;;;;;;;10.35;8.10;;;;;;;17.66;100.00;96213.13;5021549;28;20220;-75
2021/06/23 02:14:11;;;;;;;11.45;8.52;;;;;;;17.69;100.00;96218.03;4999176;28;20211;-74
2021/06/23 02:16:41;;;;;;;11.23;7.30;;;;;;;17.71;100.00;96216.75;5019380;28;20241;-74
2021/06/23 02:19:07;;;;;;;11.35;7.53;;;;;;;17.73;100.00;96220.03;5021462;28;20234;-75
2021/06/23 02:21:38;;;;;;;12.40;6.85;;;;;;;17.73;100.00;96236.03;5021317;28;20210;-75
2021/06/23 02:24:06;;;;;;;9.82;6.70;;;;;;;17.71;100.00;96248.75;5021055;28;21411;-74
2021/06/23 02:26:33;;;;;;;11.25;6.43;;;;;;;17.73;100.00;96256.50;5019962;28;20695;-75
2021/06/23 02:29:00;;;;;;;11.30;5.93;;;;;;;17.75;100.00;96275.78;5021711;28;20212;-75
2021/06/23 02:31:30;;;;;;;8.77;6.28;;;;;;;17.79;100.00;96282.31;5021240;28;20216;-74
2021/06/23 02:33:57;;;;;;;7.50;5.97;;;;;;;17.87;100.00;96295.34;5021138;28;20205;-75
2021/06/23 02:36:25;;;;;;;9.55;5.70;;;;;;;17.84;100.00;96293.94;5020904;28;20314;-75
2021/06/23 02:38:52;;;;;;;10.55;7.35;;;;;;;17.81;100.00;96299.72;5020349;28;20222;-75
2021/06/23 02:41:19;;;;;;;13.93;7.95;;;;;;;17.84;100.00;96293.13;5020799;28;20224;-74
2021/06/23 02:43:45;;;;;;;18.52;8.35;;;;;;;17.84;100.00;96279.78;5020962;28;20583;-74
2021/06/23 02:46:12;;;;;;;12.27;6.65;;;;;;;17.78;100.00;96281.50;5019266;28;20224;-74
2021/06/23 02:48:40;;;;;;;10.02;6.43;;;;;;;17.71;100.00;96287.94;5019790;28;20229;-75
2021/06/23 02:51:29;;;;;;;12.10;6.18;;;;;;;17.75;100.00;96286.44;5020733;28;20205;-75
2021/06/23 02:53:58;;;;;;;12.60;5.32;;;;;;;17.79;100.00;96296.47;5020892;28;20217;-74
2021/06/23 02:56:25;;;;;;;11.27;5.68;;;;;;;17.75;100.00;96297.09;5020522;28;20226;-74
2021/06/23 02:58:52;;;;;;;7.53;4.40;;;;;;;17.73;100.00;96299.16;5020996;28;20778;-75
2021/06/23 03:01:19;;;;;;;10.10;4.90;;;;;;;17.65;100.00;96312.78;5020900;28;20214;-74
2021/06/23 03:03:48;;;;;;;10.77;3.90;;;;;;;17.67;100.00;96310.72;5021095;28;20212;-75
2021/06/23 03:06:14;;;;;;;5.13;3.30;;;;;;;17.65;100.00;96327.97;5019706;28;20222;-74
2021/06/23 03:08:41;;;;;;;8.15;3.40;;;;;;;17.51;100.00;96327.25;5020618;28;20202;-74
2021/06/23 03:11:08;;;;;;;4.82;2.67;;;;;;;17.41;100.00;96336.75;5020300;28;20576;-74
2021/06/23 03:13:34;;;;;;;5.60;2.47;;;;;;;17.29;100.00;96338.50;5020133;28;20201;-75
2021/06/23 03:16:01;;;;;;;7.85;2.50;;;;;;;17.14;100.00;96337.94;5019893;28;20234;-75
2021/06/23 03:18:31;;;;;;;5.03;2.97;;;;;;;17.03;100.00;96332.47;5020087;28;20210;-75
2021/06/23 03:21:00;;;;;;;5.70;3.03;;;;;;;16.86;100.00;96331.34;5020073;28;20957;-74
2021/06/23 03:23:27;;;;;;;5.75;3.65;;;;;;;16.92;100.00;96336.66;5020381;28;20221;-74
2021/06/23 03:25:54;;;;;;;6.47;3.78;;;;;;;17.04;100.00;96334.13;5019191;28;20233;-77
2021/06/23 03:28:21;;;;;;;4.97;3.55;;;;;;;17.02;100.00;96333.50;5020833;28;20687;-75
2021/06/23 03:30:48;;;;;;;5.50;3.47;;;;;;;16.95;100.00;96335.41;5020642;28;20217;-74
2021/06/23 03:33:14;;;;;;;4.93;3.50;;;;;;;16.96;100.00;96323.72;5019421;28;20209;-74
2021/06/23 03:35:41;;;;;;;8.52;3.92;;;;;;;16.99;100.00;96320.63;5018930;28;20248;-76
2021/06/23 03:38:09;;;;;;;6.57;4.10;;;;;;;17.14;100.00;96320.13;5019146;28;20217;-74
2021/06/23 03:40:35;;;;;;;8.95;3.70;;;;;;;17.15;100.00;96324.41;5019949;28;20232;-75
2021/06/23 03:43:03;;;;;;;8.05;4.22;;;;;;;17.23;100.00;96318.84;5020473;28;20202;-75
2021/06/23 03:45:30;;;;;;;11.23;4.32;;;;;;;17.25;100.00;96321.31;5018680;28;21025;-75
2021/06/23 03:47:56;;;;;;;6.72;3.45;;;;;;;17.14;100.00;96333.44;5019941;28;20198;-74
2021/06/23 03:50:23;;;;;;;5.10;3.50;;;;;;;17.09;100.00;96343.94;5020648;28;20202;-75
2021/06/23 03:52:49;;;;;;;8.50;3.60;;;;;;;16.98;100.00;96338.47;5019764;28;20564;-75
2021/06/23 03:55:20;;;;;;;6.30;3.15;;;;;;;16.93;100.00;96326.78;5018476;28;20225;-75
2021/06/23 03:57:50;;;;;;;6.28;2.97;;;;;;;16.93;100.00;96313.50;5020103;28;20216;-75
2021/06/23 04:00:18;;;;;;;4.15;2.90;;;;;;;16.94;100.00;96312.47;5017803;28;20225;-76
2021/06/23 04:02:44;;;;;;;4.72;2.58;;;;;;;17.05;100.00;96309.94;5018566;28;20217;-75
2021/06/23 04:05:12;;;;;;;6.65;2.72;;;;;;;17.04;100.00;96294.19;5018646;28;20217;-75
2021/06/23 04:07:39;;;;;;;5.60;2.40;;;;;;;17.00;100.00;96282.34;5018995;28;20256;-75
2021/06/23 04:10:07;;;;;;;4.82;2.58;;;;;;;16.66;100.00;96277.41;5019049;28;20194;-74
2021/06/23 04:12:35;;;;;;;4.53;2.80;;;;;;;16.61;100.00;96285.22;5019619;28;20221;-74
2021/06/23 04:15:02;;;;;;;7.25;3.08;;;;;;;16.58;100.00;96285.66;5019456;28;20596;-75
2021/06/23 04:17:29;;;;;;;6.40;3.17;;;;;;;16.68;100.00;96296.66;5019377;28;20293;-74
2021/06/23 04:19:55;;;;;;;4.35;2.80;;;;;;;16.77;100.00;96290.84;5019621;28;20229;-75
2021/06/23 04:22:24;;;;;;;5.10;2.97;;;;;;;16.83;100.00;96303.31;5018986;28;20201;-74
2021/06/23 04:24:50;;;;;;;5.05;3.13;;;;;;;16.75;100.00;96292.09;5018487;28;20230;-74
2021/06/23 04:27:17;;;;;;;8.57;3.75;;;;;;;16.67;100.00;96285.16;5017741;28;20210;-75
2021/06/23 04:29:45;;;;;;;9.73;4.22;;;;;;;16.66;100.00;96278.25;5018753;28;20206;-74
2021/06/23 04:32:11;;;;;;;8.50;4.00;;;;;;;16.51;100.00;96274.25;5019362;28;20227;-73
2021/06/23 04:34:38;;;;;;;9.27;3.70;;;;;;;16.47;100.00;96273.03;5018911;28;20206;-74
2021/06/23 04:37:05;;;;;;;8.63;3.72;;;;;;;16.42;100.00;96280.81;5018161;28;20198;-73
2021/06/23 04:39:31;;;;;;;9.55;3.80;;;;;;;16.43;100.00;96277.13;5018514;28;20833;-74
2021/06/23 04:41:58;;;;;;;6.25;3.92;;;;;;;16.53;100.00;96277.47;5018198;28;20212;-75
2021/06/23 04:44:24;;;;;;;6.50;3.85;;;;;;;16.74;100.00;96287.81;5019312;28;20202;-73
2021/06/23 04:46:52;;;;;;;6.00;4.38;;;;;;;16.83;100.00;96279.38;5017442;28;20232;-73
2021/06/23 04:49:19;;;;;;;6.95;3.42;;;;;;;16.87;100.00;96279.75;5019472;28;20209;-73
2021/06/23 04:51:45;;;;;;;6.22;3.63;;;;;;;16.80;100.00;96276.31;5018538;28;20237;-76
2021/06/23 04:54:12;;;;;;;4.93;3.20;;;;;;;16.80;100.00;96285.13;5018177;28;21029;-76
2021/06/23 04:56:39;;;;;;;7.22;3.30;;;;;;;16.82;100.00;96283.06;5017813;28;20608;-74
2021/06/23 04:59:05;;;;;;;5.82;3.30;;;;;;;16.85;100.00;96284.47;5017373;28;20230;-73
2021/06/23 05:01:32;;;;;;;5.13;3.13;;;;;;;16.90;100.00;96292.63;5018225;28;20715;-74
2021/06/23 05:03:59;;;;;;;5.72;3.03;;;;;;;17.08;100.00;96303.38;5017898;28;20228;-73
2021/06/23 05:06:26;;;;;;;5.45;3.33;;;;;;;17.24;100.00;96309.81;5016773;28;20233;-74
2021/06/23 05:08:52;;;;;;;6.72;3.20;;;;;;;17.15;100.00;96319.06;5017761;28;20221;-75
2021/06/23 05:11:19;;;;;;;4.45;3.25;;;;;;;17.33;100.00;96329.84;5017976;28;20206;-73
2021/06/23 05:13:45;;;;;;;4.40;2.25;;;;;;;17.46;100.00;96329.75;5018477;28;20217;-75
2021/06/23 05:16:12;;;;;;;5.35;2.40;;;;;;;17.54;100.00;96337.50;5017372;28;20236;-74
2021/06/23 05:18:39;;;;;;;4.00;2.50;;;;;;;17.56;100.00;96342.59;5018679;28;20600;-76
2021/06/23 05:21:07;;;;;;;5.63;2.38;;;;;;;17.49;100.00;96342.66;5018540;28;20226;-74
2021/06/23 05:23:33;;;;;;;3.20;2.28;;;;;;;17.56;100.00;96339.94;5018041;28;20208;-74
2021/06/23 05:26:00;;;;;;;2.83;2.00;;;;;;;17.63;100.00;96336.19;5017054;28;20221;-76
2021/06/23 05:28:26;;;;;;;6.13;2.35;;;;;;;17.74;100.00;96338.13;5017721;28;20218;-74
2021/06/23 05:30:53;;;;;;;7.40;2.00;;;;;;;17.72;100.00;96341.00;5017961;28;20208;-76
2021/06/23 05:33:20;;;;;;;2.95;2.20;;;;;;;17.72;100.00;96345.53;5018370;28;20198;-76
2021/06/23 05:35:46;;;;;;;5.78;2.50;;;;;;;17.89;100.00;96347.41;5016838;28;20221;-77
2021/06/23 05:38:14;;;;;;;5.72;2.30;;;;;;;18.01;100.00;96344.84;5017679;28;20213;-75
2021/06/23 05:40:41;;;;;;;3.40;2.40;;;;;;;18.04;100.00;96344.41;5018244;28;20225;-74
2021/06/23 05:43:08;;;;;;;5.05;2.35;;;;;;;18.04;100.00;96349.75;5018456;28;20233;-74
2021/06/23 05:45:34;;;;;;;5.50;1.90;;;;;;;18.21;100.00;96345.50;5017158;28;20614;-75
2021/06/23 05:48:01;;;;;;;6.70;2.35;;;;;;;18.19;100.00;96352.91;5018049;28;20206;-74
2021/06/23 05:50:27;;;;;;;4.57;1.83;;;;;;;18.20;100.00;96365.19;5018113;28;21064;-77
2021/06/23 05:52:54;;;;;;;3.58;2.00;;;;;;;18.32;100.00;96363.44;5016879;28;20457;-76
2021/06/23 05:55:22;;;;;;;1.60;1.40;;;;;;;18.34;100.00;96360.34;5017140;28;20225;-73
2021/06/23 05:57:52;;;;;;;2.58;1.88;;;;;;;18.42;100.00;96351.22;5018689;28;20213;-74
2021/06/23 06:00:20;;;;;;;4.82;1.73;;;;;;;18.43;100.00;96355.50;5017851;28;20236;-73
2021/06/23 06:02:47;;;;;;;3.83;1.52;;;;;;;18.43;100.00;96345.66;5018201;28;20296;-75
2021/06/23 06:05:14;;;;;;;3.97;1.73;;;;;;;18.40;100.00;96355.97;5017733;28;21105;-77
2021/06/23 06:07:41;;;;;;;2.47;1.60;;;;;;;18.55;100.00;96359.88;5017839;28;20221;-74
2021/06/23 06:10:08;;;;;;;2.00;1.38;;;;;;;18.65;100.00;96370.84;5017575;28;20202;-75
2021/06/23 06:12:37;;;;;;;4.75;1.20;;;;;;;18.76;100.00;96372.78;5018189;28;21059;-76
2021/06/23 06:15:03;;;;;;;2.60;1.40;;;;;;;18.87;100.00;96377.38;5016981;28;20222;-75
2021/06/23 06:17:30;;;;;;;2.25;1.45;;;;;;;19.06;100.00;96381.69;5017602;28;20224;-74
2021/06/23 06:19:56;;;;;;;1.80;1.10;;;;;;;19.05;100.00;96388.03;5017102;28;21001;-75
2021/06/23 06:22:24;;;;;;;1.40;1.25;;;;;;;18.99;100.00;96389.75;5017967;28;20202;-76
2021/06/23 06:24:50;;;;;;;3.25;1.40;;;;;;;19.06;100.00;96393.16;5020045;28;20779;-75
2021/06/23 06:27:17;;;;;;;2.67;1.25;;;;;;;19.05;100.00;96390.69;5020388;28;20212;-74
2021/06/23 06:29:45;;;;;;;2.50;1.20;;;;;;;18.95;100.00;96401.09;5018650;28;20229;-76
2021/06/23 06:32:11;;;;;;;2.08;1.30;;;;;;;19.04;100.00;96397.06;5020686;28;20668;-74
2021/06/23 06:34:38;;;;;;;5.05;1.35;;;;;;;19.21;100.00;96401.59;5019852;28;20214;-74
2021/06/23 06:37:05;;;;;;;3.38;1.45;;;;;;;19.25;100.00;96399.31;5020535;28;20213;-74
2021/06/23 06:39:31;;;;;;;3.25;1.40;;;;;;;19.36;100.00;96399.34;5020309;28;20208;-74
2021/06/23 06:41:58;;;;;;;3.17;1.17;;;;;;;19.48;100.00;96394.03;5021034;28;20646;-74
2021/06/23 06:44:28;;;;;;;4.03;0.95;;;;;;;19.44;100.00;96387.53;5020356;28;20209;-77
2021/06/23 06:46:56;;;;;;;2.85;1.00;;;;;;;19.64;100.00;96394.22;5020467;28;20257;-75
2021/06/23 06:49:26;;;;;;;2.38;1.20;;;;;;;19.76;100.00;96392.38;5020766;28;20206;-76
2021/06/23 06:51:53;;;;;;;2.78;1.27;;;;;;;20.04;100.00;96400.59;5021161;28;20198;-75
2021/06/23 06:54:19;;;;;;;1.48;1.20;;;;;;;19.78;100.00;96399.13;5020742;28;20205;-76
2021/06/23 06:56:46;;;;;;;2.40;1.40;;;;;;;19.86;100.00;96398.78;5020857;28;20229;-78
2021/06/23 06:59:12;;;;;;;1.73;1.05;;;;;;;19.74;100.00;96395.28;5020012;28;20213;-75
2021/06/23 07:01:38;;;;;;;1.52;1.13;;;;;;;19.74;100.00;96399.78;5019804;28;20240;-74
2021/06/23 07:04:06;;;;;;;2.50;1.10;;;;;;;19.66;100.00;96394.78;5020603;28;21318;-78
2021/06/23 07:06:33;;;;;;;1.27;0.65;;;;;;;19.81;100.00;96401.31;5019075;28;20237;-75
2021/06/23 07:08:59;;;;;;;1.42;0.85;;;;;;;19.81;100.00;96403.19;5020760;28;20204;-74
2021/06/23 07:11:26;;;;;;;1.23;0.90;;;;;;;19.62;100.00;96398.97;5020681;28;20213;-76
2021/06/23 07:13:52;;;;;;;1.08;0.70;;;;;;;19.67;100.00;96389.19;5019728;28;20684;-75
2021/06/23 07:16:19;;;;;;;0.55;0.55;;;;;;;19.55;100.00;96395.56;5019102;28;20249;-77
2021/06/23 07:18:48;;;;;;;0.70;0.70;;;;;;;19.68;100.00;96393.50;5021352;28;20288;-75
2021/06/23 07:21:18;;;;;;;1.05;0.77;;;;;;;20.24;100.00;96396.53;5020320;28;20232;-76
2021/06/23 07:23:44;;;;;;;0.82;0.70;;;;;;;20.62;100.00;96394.16;5020106;28;20623;-77
2021/06/23 07:26:11;;;;;;;1.75;0.63;;;;;;;20.79;99.74;96389.75;5019989;28;20214;-77
2021/06/23 07:28:45;;;;;;;1.52;0.90;;;;;;;20.96;100.00;96403.00;5019215;28;20210;-78
2021/06/23 07:31:14;;;;;;;1.13;1.02;;;;;;;21.04;100.00;96399.94;5019537;28;20202;-74
2021/06/23 07:33:49;;;;;;;1.38;0.90;;;;;;;20.87;100.00;96404.41;5020251;28;20833;-75
2021/06/23 07:36:34;;;;;;;3.95;1.30;;;;;;;20.65;100.00;96404.44;5019843;28;20221;-75
2021/06/23 07:39:02;;;;;;;5.07;1.30;;;;;;;20.70;100.00;96413.38;5019724;28;20292;-75
2021/06/23 07:41:29;;;;;;;3.80;1.40;;;;;;;20.79;100.00;96403.97;5019875;28;20253;-77
2021/06/23 07:43:55;;;;;;;2.63;1.35;;;;;;;20.75;100.00;96415.38;5020395;28;20213;-75
2021/06/23 07:46:23;;;;;;;2.17;1.10;;;;;;;20.77;97.87;96407.91;5019156;28;20225;-78
2021/06/23 07:48:51;;;;;;;3.05;0.90;;;;;;;20.85;100.00;96411.88;5019999;28;20214;-77
2021/06/23 07:51:26;;;;;;;1.98;0.90;;;;;;;20.81;100.00;96411.75;5019832;28;20213;-79
2021/06/23 07:54:13;;;;;;;1.25;1.00;;;;;;;21.09;100.00;96404.56;5020606;28;20209;-74
2021/06/23 07:56:56;;;;;;;2.05;1.00;;;;;;;21.24;96.10;96416.41;5019663;28;20233;-76
2021/06/23 08:10:28;;;;;;;1.00;0.60;;;;;;;21.62;89.78;96413.97;5019510;28;20217;-75
2021/06/23 08:12:56;;;;;;;3.50;0.95;;;;;;;21.53;91.97;96413.53;5020092;28;20320;-77
2021/06/23 08:15:25;;;;;;;0.80;0.73;;;;;;;21.17;90.95;96413.06;5018304;28;20597;-77
2021/06/23 08:17:51;;;;;;;1.35;0.80;;;;;;;21.25;94.82;96406.53;5020385;28;20297;-74
2021/06/23 08:20:18;;;;;;;2.35;0.82;;;;;;;21.39;93.57;96416.72;5019753;28;20234;-75
2021/06/23 08:22:46;;;;;;;0.73;0.73;;;;;;;21.51;93.22;96422.88;5019902;28;20289;-77
2021/06/23 08:25:13;;;;;;;2.67;0.77;;;;;;;21.48;85.13;96426.00;5018793;28;20249;-78
2021/06/23 08:27:39;;;;;;;1.00;0.60;;;;;;;21.35;91.66;96412.88;5020411;28;20210;-75
2021/06/23 08:30:08;;;;;;;0.80;0.70;;;;;;;21.38;91.20;96415.06;5019850;28;20201;-75
2021/06/23 08:32:35;;;;;;;2.35;0.90;;;;;;;21.38;95.05;96412.41;5019532;28;20213;-76
2021/06/23 08:35:01;;;;;;;1.10;0.68;;;;;;;21.57;91.86;96416.56;5019500;28;20252;-80
2021/06/23 08:37:29;;;;;;;2.88;0.80;;;;;;;21.67;91.59;96414.06;5018133;28;20229;-76
2021/06/23 08:39:57;;;;;;;1.58;0.73;;;;;;;21.50;93.33;96411.34;5017789;28;20216;-76
2021/06/23 08:42:24;;;;;;;2.22;0.80;;;;;;;21.53;90.80;96416.22;5018575;28;20206;-75
2021/06/23 08:44:51;;;;;;;1.90;0.90;;;;;;;21.74;93.50;96412.84;5018720;28;20210;-79
2021/06/23 08:47:18;;;;;;;1.30;0.70;;;;;;;21.63;92.04;96415.59;5018506;28;20206;-77
2021/06/23 08:49:45;;;;;;;2.70;0.90;;;;;;;21.67;92.24;96416.75;5019759;28;20668;-78
2021/06/23 08:52:12;;;;;;;1.25;0.90;;;;;;;21.61;95.76;96406.97;5020898;28;20656;-74
2021/06/23 08:54:40;;;;;;;1.10;0.82;;;;;;;21.57;91.90;96406.63;5020482;28;20213;-76
2021/06/23 08:57:09;;;;;;;2.53;1.00;;;;;;;21.87;87.37;96414.41;5019424;28;20660;-77
2021/06/23 08:59:36;;;;;;;1.65;0.90;;;;;;;21.98;86.81;96408.16;5020353;28;20217;-77
2021/06/23 09:02:03;;;;;;;1.10;1.00;;;;;;;21.86;92.10;96407.44;5019886;28;20271;-78
2021/06/23 09:04:29;;;;;;;1.85;0.80;;;;;;;22.24;88.71;96403.75;5020161;28;20225;-78
2021/06/23 09:06:58;;;;;;;2.10;1.15;;;;;;;22.22;92.26;96399.69;5019674;28;20590;-76
2021/06/23 09:09:26;;;;;;;4.07;1.33;;;;;;;22.14;94.90;96394.75;5020105;28;20213;-79
2021/06/23 09:11:55;;;;;;;3.22;1.30;;;;;;;22.61;88.45;96399.53;5020525;28;20206;-75
2021/06/23 09:14:24;;;;;;;2.45;1.20;;;;;;;22.75;85.11;96395.44;5020758;28;20237;-75
2021/06/23 09:17:07;;;;;;;2.63;1.60;;;;;;;22.50;91.18;96395.06;5020466;28;20240;-76
2021/06/23 09:19:35;;;;;;;2.70;1.58;;;;;;;22.47;89.42;96387.50;5020451;28;20206;-74
2021/06/23 09:22:03;;;;;;;4.20;2.05;;;;;;;22.69;89.34;96388.34;5021181;28;20217;-77
2021/06/23 09:24:38;;;;;;;3.05;1.77;;;;;;;22.87;90.96;96388.88;5020654;28;20213;-77
2021/06/23 09:27:21;;;;;;;2.38;1.60;;;;;;;23.01;86.90;96383.97;5018611;28;20208;-77
2021/06/23 09:29:51;;;;;;;2.92;1.80;;;;;;;22.89;85.09;96391.31;5020364;28;20205;-75
2021/06/23 09:32:18;;;;;;;2.90;1.75;;;;;;;22.76;92.01;96387.09;5021137;28;20260;-77
2021/06/23 09:34:46;;;;;;;8.15;2.53;;;;;;;23.19;86.89;96387.13;5019827;28;20731;-75
2021/06/23 09:37:27;;;;;;;3.28;2.25;;;;;;;23.15;85.87;96390.59;5020090;28;20198;-76
2021/06/23 09:40:11;;;;;;;7.05;2.55;;;;;;;22.97;89.29;96386.28;5020216;28;20664;-75
2021/06/23 09:42:42;;;;;;;2.78;1.75;;;;;;;23.23;86.81;96387.44;5019369;28;20229;-78
2021/06/23 09:45:12;;;;;;;4.40;2.13;;;;;;;23.67;81.05;96393.31;5018505;28;21037;-76
2021/06/23 09:47:39;;;;;;;4.22;1.92;;;;;;;23.56;83.77;96391.59;5018906;28;20202;-77
2021/06/23 09:50:07;;;;;;;4.13;2.58;;;;;;;23.77;82.53;96381.88;5018577;28;20205;-75
2021/06/23 09:52:35;;;;;;;3.67;2.25;;;;;;;23.83;81.81;96380.84;5017917;28;20198;-76
2021/06/23 09:55:03;;;;;;;3.60;1.80;;;;;;;24.03;79.16;96384.53;5017544;28;20280;-78
2021/06/23 09:57:31;;;;;;;4.53;1.90;;;;;;;23.84;81.26;96377.09;5018315;28;20209;-79
2021/06/23 10:00:08;;;;;;;4.32;1.77;;;;;;;24.07;81.35;96380.25;5020550;28;20205;-76
2021/06/23 10:02:37;;;;;;;2.30;2.00;;;;;;;24.13;82.93;96376.53;5023330;28;20229;-75
2021/06/23 10:05:26;;;;;;;4.03;1.95;;;;;;;23.95;80.37;96367.00;5021524;28;20641;-75
2021/06/23 10:07:53;;;;;;;4.13;1.75;;;;;;;24.03;80.51;96373.75;5022501;28;20699;-77
2021/06/23 10:10:21;;;;;;;2.35;1.58;;;;;;;23.88;79.69;96375.50;5022640;28;20214;-76
2021/06/23 10:12:49;;;;;;;2.10;1.42;;;;;;;23.91;79.94;96370.44;5021592;28;20198;-79
2021/06/23 10:15:16;;;;;;;2.97;1.65;;;;;;;23.98;81.24;96365.63;5016225;28;20624;-77
2021/06/23 10:17:45;;;;;;;2.53;1.75;;;;;;;23.96;77.20;96367.78;5020881;28;20248;-75
2021/06/23 10:20:14;;;;;;;2.95;1.63;;;;;;;24.18;81.33;96366.59;5021787;28;20202;-75
2021/06/23 10:22:42;;;;;;;4.60;1.60;;;;;;;24.27;81.42;96361.56;5021195;28;20237;-75
2021/06/23 10:25:11;;;;;;;2.65;1.40;;;;;;;24.50;78.48;96358.53;5019981;28;20218;-76
2021/06/23 10:27:41;;;;;;;2.63;2.17;;;;;;;24.24;78.90;96360.19;5021024;28;21000;-78
2021/06/23 10:30:09;;;;;;;4.47;1.60;;;;;;;24.36;79.73;96357.31;5022093;28;20202;-78
2021/06/23 10:32:37;;;;;;;2.38;1.60;;;;;;;24.35;79.18;96353.00;5022413;28;20200;-77
2021/06/23 10:35:07;;;;;;;2.67;1.55;;;;;;;24.56;80.64;96353.69;5021480;28;20979;-75
2021/06/23 10:37:36;;;;;;;3.10;2.17;;;;;;;24.13;82.43;96352.31;5022901;28;20206;-74
2021/06/23 10:40:06;;;;;;;3.45;1.80;;;;;;;24.49;74.65;96351.50;5021426;28;20202;-76
2021/06/23 10:42:33;;;;;;;2.42;1.58;;;;;;;24.84;76.39;96350.63;5021624;28;20230;-75
2021/06/23 10:45:00;;;;;;;2.03;1.45;;;;;;;24.57;73.97;96336.47;5022410;28;20218;-80
2021/06/23 10:47:31;;;;;;;5.93;1.80;;;;;;;24.40;76.08;96348.50;5022698;28;20206;-75
2021/06/23 10:49:58;;;;;;;1.88;1.60;;;;;;;24.48;75.92;96344.47;5023186;28;20220;-78
2021/06/23 10:52:42;;;;;;;1.88;1.52;;;;;;;24.55;77.21;96339.69;5022985;28;20655;-77
2021/06/23 10:55:38;;;;;;;2.95;1.60;;;;;;;24.86;81.67;96339.56;5021194;28;20995;-75
2021/06/23 10:58:07;;;;;;;2.17;1.70;;;;;;;24.34;82.03;96357.56;5022086;28;20202;-79
2021/06/23 11:00:33;;;;;;;2.50;1.52;;;;;;;24.38;78.70;96344.41;5021687;28;20209;-75
2021/06/23 11:03:03;;;;;;;2.75;1.92;;;;;;;24.38;74.96;96353.31;5021655;28;20228;-76
2021/06/23 11:05:36;;;;;;;3.28;1.67;;;;;;;24.37;77.69;96362.44;5011558;28;20225;-78
2021/06/23 11:08:31;;;;;;;2.78;1.40;;;;;;;24.58;76.14;96362.34;5021150;28;20213;-76
2021/06/23 11:11:00;;;;;;;2.78;2.00;;;;;;;24.30;73.91;96367.25;5019822;28;20206;-76
2021/06/23 11:13:28;;;;;;;2.42;1.63;;;;;;;24.21;77.93;96366.09;5020782;28;20198;-75
2021/06/23 11:15:55;;;;;;;1.70;1.60;;;;;;;24.22;82.60;96359.66;5019706;28;20240;-76
2021/06/23 11:18:30;;;;;;;2.08;1.88;;;;;;;24.66;77.96;96361.03;5022044;28;21235;-79
2021/06/23 11:20:59;;;;;;;3.28;2.20;;;;;;;24.76;70.68;96353.81;5022208;28;20684;-75
2021/06/23 11:23:51;;;;;;;2.72;1.98;;;;;;;24.40;73.71;96350.38;5021798;28;20225;-78
2021/06/23 11:26:53;;;;;;;4.65;1.88;;;;;;;25.02;76.44;96352.06;5019150;28;20749;-77
2021/06/23 11:29:39;;;;;;;2.58;1.90;;;;;;;25.00;74.38;96348.78;5020691;28;20201;-79
2021/06/23 11:32:08;;;;;;;2.30;1.73;;;;;;;24.64;73.69;96353.22;5020135;28;20206;-74
2021/06/23 11:34:56;;;;;;;2.80;1.90;;;;;;;24.44;74.17;96346.91;5020322;28;20202;-74
2021/06/23 11:37:27;;;;;;;3.17;2.17;;;;;;;25.03;74.99;96346.38;5016552;28;20206;-75
2021/06/23 11:40:26;;;;;;;2.85;2.20;;;;;;;24.96;73.96;96331.53;5020463;28;20205;-76
2021/06/23 11:42:53;;;;;;;5.55;2.85;;;;;;;24.47;75.37;96329.41;5020221;28;20726;-76
2021/06/23 11:45:21;;;;;;;19.50;6.75;;;;;;;24.68;84.21;96330.06;5020142;28;20236;-76
2021/06/23 11:47:48;;;;;;;8.70;4.00;;;;;;;25.06;78.21;96327.00;5020457;28;20206;-76